Time;durP1;ratioP1;P1;durP2;ratioP2;P2;SDS_P1;SDS_P2;PMS_P1;PMS_P2;Temp;Humidity;BMP_temperature;BMP_pressure;BME280_temperature;BME280_humidity;BME280_pressure;Samples;Min_cycle;Max_cycle;Signal;HPM_P1;HPM_P2
2021/07/01 00:00:29;;;;;;;11.00;8.82;;;;;;;24.27;60.42;99542.22;5090500;28;20031;-22
2021/07/01 00:02:54;;;;;;;13.00;8.88;;;;;;;24.06;61.26;99542.09;5090243;28;20036;-22
2021/07/01 00:05:21;;;;;;;13.35;9.40;;;;;;;24.05;60.64;99529.59;5090511;28;20403;-22
2021/07/01 00:07:47;;;;;;;13.82;8.75;;;;;;;23.79;61.06;99515.19;5089838;28;20059;-22
2021/07/01 00:10:17;;;;;;;11.02;8.88;;;;;;;23.90;61.28;99527.34;5089967;28;20613;-22
2021/07/01 00:12:43;;;;;;;19.67;12.85;;;;;;;23.92;61.20;99533.28;5090266;28;20032;-22
2021/07/01 00:15:13;;;;;;;17.88;12.57;;;;;;;23.73;61.93;99521.91;5090195;28;20031;-22
2021/07/01 00:17:38;;;;;;;13.07;10.60;;;;;;;23.69;62.08;99532.63;5089894;28;20130;-22
2021/07/01 00:20:04;;;;;;;17.17;12.30;;;;;;;23.59;61.62;99511.94;5090039;28;20102;-22
2021/07/01 00:22:30;;;;;;;15.98;11.35;;;;;;;23.86;61.81;99521.78;5090040;28;20479;-22
2021/07/01 00:24:55;;;;;;;12.35;9.27;;;;;;;23.80;62.19;99533.13;5089935;28;20028;-22
2021/07/01 00:27:21;;;;;;;14.25;8.88;;;;;;;23.92;61.61;99516.94;5089811;28;20035;-22
2021/07/01 00:29:46;;;;;;;11.38;10.00;;;;;;;23.98;61.70;99533.91;5089631;28;20032;-22
2021/07/01 00:32:12;;;;;;;14.38;9.43;;;;;;;23.96;61.90;99545.13;5089757;28;20036;-22
2021/07/01 00:34:37;;;;;;;12.52;9.65;;;;;;;24.05;61.43;99535.03;5089618;28;20027;-22
2021/07/01 00:37:03;;;;;;;11.57;9.07;;;;;;;23.75;62.30;99552.31;5090044;28;20039;-22
2021/07/01 00:39:28;;;;;;;12.10;9.43;;;;;;;24.05;61.58;99548.66;5089676;28;20025;-22
2021/07/01 00:41:54;;;;;;;14.27;9.55;;;;;;;23.88;62.30;99528.81;5071302;28;20043;-22
2021/07/01 00:44:19;;;;;;;10.90;9.10;;;;;;;23.85;62.68;99547.38;5089699;28;20026;-22
2021/07/01 00:46:45;;;;;;;14.77;9.68;;;;;;;23.85;62.24;99546.59;5089576;28;20042;-22
2021/07/01 00:49:10;;;;;;;13.82;9.85;;;;;;;23.79;63.17;99556.03;5089644;28;20028;-23
2021/07/01 00:51:36;;;;;;;15.05;10.05;;;;;;;24.03;62.21;99556.34;5089412;28;20032;-22
2021/07/01 00:54:01;;;;;;;15.90;10.43;;;;;;;23.97;61.89;99538.56;5089237;28;20028;-22
2021/07/01 00:56:27;;;;;;;15.20;9.75;;;;;;;24.13;61.92;99546.25;5089187;28;20039;-22
2021/07/01 00:58:54;;;;;;;13.95;9.88;;;;;;;24.05;62.15;99548.66;5089542;28;20024;-22
2021/07/01 01:01:21;;;;;;;13.65;10.35;;;;;;;23.81;62.79;99540.19;5089216;28;20036;-22
2021/07/01 01:03:46;;;;;;;11.95;10.07;;;;;;;23.69;63.54;99535.34;5089129;28;20030;-22
2021/07/01 01:06:12;;;;;;;11.60;9.95;;;;;;;23.54;63.54;99520.28;5071013;28;20028;-22
2021/07/01 01:08:37;;;;;;;25.40;10.85;;;;;;;23.43;64.44;99535.28;5070761;28;20523;-22
2021/07/01 01:11:03;;;;;;;12.55;9.80;;;;;;;23.46;64.14;99534.69;5089185;28;20031;-22
2021/07/01 01:13:28;;;;;;;14.90;10.13;;;;;;;23.32;65.26;99534.00;5088986;28;20557;-22
2021/07/01 01:15:55;;;;;;;12.73;9.93;;;;;;;23.11;65.50;99523.72;5089040;28;20790;-22
2021/07/01 01:18:21;;;;;;;12.68;9.50;;;;;;;23.23;65.39;99536.69;5089120;28;20088;-22
2021/07/01 01:20:48;;;;;;;12.00;9.93;;;;;;;23.13;65.29;99516.03;5070912;28;20110;-22
2021/07/01 01:23:13;;;;;;;21.10;9.93;;;;;;;23.21;65.71;99534.31;5088643;28;20119;-22
2021/07/01 01:25:39;;;;;;;13.95;9.80;;;;;;;23.08;65.99;99537.94;5088827;28;20040;-22
2021/07/01 01:28:04;;;;;;;13.90;9.13;;;;;;;23.18;65.71;99534.94;5070429;28;20020;-22
2021/07/01 01:30:30;;;;;;;11.68;9.20;;;;;;;22.93;66.45;99536.41;5088738;28;20028;-22
2021/07/01 01:32:55;;;;;;;14.40;10.30;;;;;;;22.73;67.40;99524.19;5088739;28;20023;-22
2021/07/01 01:35:21;;;;;;;14.93;10.35;;;;;;;23.02;66.49;99541.91;5088630;28;20031;-22
2021/07/01 01:37:46;;;;;;;13.55;10.15;;;;;;;22.89;67.03;99538.16;5088225;28;20031;-23
2021/07/01 01:40:12;;;;;;;11.27;9.93;;;;;;;23.06;66.45;99529.28;5088537;28;20043;-22
2021/07/01 01:42:39;;;;;;;16.08;10.68;;;;;;;22.90;66.69;99511.78;5088517;28;20035;-22
2021/07/01 01:45:05;;;;;;;12.95;10.32;;;;;;;23.07;66.10;99528.19;5088177;28;20578;-22
2021/07/01 01:47:31;;;;;;;48.38;11.75;;;;;;;22.82;67.20;99529.66;5087734;28;20032;-22
2021/07/01 01:49:56;;;;;;;12.20;10.50;;;;;;;22.72;67.87;99530.75;5088096;28;20040;-22
2021/07/01 01:52:22;;;;;;;12.85;10.07;;;;;;;22.76;67.47;99533.63;5088142;28;20050;-22
2021/07/01 01:54:47;;;;;;;12.82;10.52;;;;;;;22.95;67.28;99541.56;5070113;28;20031;-22
2021/07/01 01:57:13;;;;;;;13.50;10.68;;;;;;;23.02;67.04;99552.78;5088497;28;20475;-22
2021/07/01 01:59:38;;;;;;;12.18;10.38;;;;;;;23.22;66.04;99546.78;5088234;28;20036;-22
2021/07/01 02:02:04;;;;;;;13.13;9.80;;;;;;;23.05;66.38;99550.25;5088226;28;20036;-22
2021/07/01 02:04:29;;;;;;;14.80;10.15;;;;;;;23.05;66.17;99547.53;5087954;28;20028;-22
2021/07/01 02:06:55;;;;;;;14.02;9.75;;;;;;;22.97;66.77;99555.63;5087912;28;20041;-22
2021/07/01 02:09:21;;;;;;;12.02;9.35;;;;;;;22.90;66.86;99552.56;5069809;28;20134;-22
2021/07/01 02:11:47;;;;;;;12.68;10.38;;;;;;;23.08;66.46;99556.97;5069981;28;20035;-22
2021/07/01 02:14:13;;;;;;;13.73;9.73;;;;;;;22.98;66.73;99558.03;5087628;28;20020;-22
2021/07/01 02:16:38;;;;;;;17.60;9.20;;;;;;;22.95;66.40;99549.72;5087907;28;20028;-22
2021/07/01 02:19:04;;;;;;;15.48;10.05;;;;;;;22.82;67.45;99563.09;5087970;28;20509;-23
2021/07/01 02:21:29;;;;;;;15.18;10.00;;;;;;;22.86;66.99;99561.34;5087775;28;20032;-22
2021/07/01 02:23:54;;;;;;;15.57;10.32;;;;;;;23.31;65.40;99570.47;5087526;28;20036;-22
2021/07/01 02:26:20;;;;;;;16.38;10.18;;;;;;;23.36;65.00;99573.88;5087808;28;20028;-22
2021/07/01 02:28:45;;;;;;;13.80;10.57;;;;;;;23.30;65.37;99566.19;5069413;28;20032;-22
2021/07/01 02:31:11;;;;;;;12.88;9.98;;;;;;;23.05;66.29;99563.06;5087803;28;20024;-23
2021/07/01 02:33:36;;;;;;;13.80;10.48;;;;;;;23.08;66.30;99572.50;5087791;28;20028;-22
2021/07/01 02:36:02;;;;;;;37.85;11.18;;;;;;;23.10;66.24;99576.50;5069292;28;20042;-22
2021/07/01 02:38:27;;;;;;;14.90;10.23;;;;;;;23.15;65.79;99570.09;5087645;28;20028;-22
2021/07/01 02:40:53;;;;;;;14.38;10.32;;;;;;;23.03;66.47;99570.72;5087417;28;20028;-22
2021/07/01 02:43:19;;;;;;;13.05;10.43;;;;;;;22.97;66.47;99577.38;5087468;28;20093;-22
2021/07/01 02:45:44;;;;;;;27.05;11.68;;;;;;;22.53;68.22;99569.00;5087573;28;20032;-22
2021/07/01 02:48:10;;;;;;;13.52;10.15;;;;;;;22.46;68.46;99574.88;5087493;28;20036;-22
2021/07/01 02:50:35;;;;;;;12.77;10.40;;;;;;;22.36;68.39;99580.56;5087446;28;20545;-22
2021/07/01 02:53:01;;;;;;;19.55;11.07;;;;;;;22.77;67.24;99579.53;5087224;28;20480;-22
2021/07/01 02:55:26;;;;;;;16.50;10.82;;;;;;;22.98;65.94;99578.97;5087351;28;20055;-22
2021/07/01 02:57:52;;;;;;;15.82;11.02;;;;;;;23.03;65.55;99592.47;5087078;28;20569;-22
2021/07/01 03:00:17;;;;;;;16.67;11.50;;;;;;;22.79;66.61;99587.38;5068872;28;20032;-22
2021/07/01 03:02:43;;;;;;;12.25;10.30;;;;;;;22.67;66.75;99591.47;5087271;28;20062;-22
2021/07/01 03:05:08;;;;;;;14.73;10.90;;;;;;;22.65;67.00;99592.88;5087128;28;20051;-22
2021/07/01 03:07:34;;;;;;;14.18;10.18;;;;;;;22.63;66.53;99563.28;5087006;28;20032;-22
2021/07/01 03:10:00;;;;;;;13.48;10.65;;;;;;;22.68;66.72;99581.41;5086845;28;20048;-22
2021/07/01 03:12:25;;;;;;;13.90;10.35;;;;;;;22.80;66.29;99578.91;5087092;28;20024;-22
2021/07/01 03:14:51;;;;;;;15.90;11.07;;;;;;;22.75;66.66;99583.69;5069066;28;20074;-22
2021/07/01 03:17:16;;;;;;;14.63;10.68;;;;;;;22.69;66.66;99583.00;5087070;28;20394;-22
2021/07/01 03:19:42;;;;;;;15.23;10.73;;;;;;;22.63;67.65;99586.97;5087310;28;20092;-22
2021/07/01 03:22:08;;;;;;;14.60;11.20;;;;;;;22.65;66.92;99582.03;5087192;28;20027;-22
2021/07/01 03:24:33;;;;;;;17.67;11.30;;;;;;;22.72;67.11;99595.97;5069009;28;20569;-22
2021/07/01 03:27:00;;;;;;;17.83;11.20;;;;;;;23.25;65.08;99589.69;5087117;28;20024;-22
2021/07/01 03:29:26;;;;;;;15.15;11.50;;;;;;;23.03;66.10;99604.16;5086798;28;20039;-22
2021/07/01 03:31:52;;;;;;;14.70;11.40;;;;;;;23.44;64.73;99611.19;5086771;28;20032;-22
2021/07/01 03:34:17;;;;;;;24.95;11.70;;;;;;;23.31;65.27;99597.69;5086878;28;20043;-22
2021/07/01 03:36:42;;;;;;;16.02;11.07;;;;;;;23.37;65.48;99602.66;5087056;28;20501;-22
2021/07/01 03:39:08;;;;;;;15.65;11.30;;;;;;;23.26;65.46;99613.03;5087004;28;20089;-22
2021/07/01 03:41:34;;;;;;;17.08;11.60;;;;;;;22.85;66.62;99607.88;5086645;28;20035;-22
2021/07/01 03:43:59;;;;;;;13.63;11.30;;;;;;;22.82;66.82;99608.47;5086778;28;20108;-22
2021/07/01 03:46:25;;;;;;;14.90;12.00;;;;;;;22.93;66.19;99606.31;5087028;28;20020;-22
2021/07/01 03:48:50;;;;;;;20.92;10.88;;;;;;;22.86;66.66;99615.72;5086940;28;20909;-22
2021/07/01 03:51:16;;;;;;;16.75;11.52;;;;;;;23.05;65.67;99617.44;5087029;28;20031;-22
2021/07/01 03:53:41;;;;;;;16.25;11.50;;;;;;;23.26;65.05;99632.09;5086666;28;20032;-22
2021/07/01 03:56:07;;;;;;;13.80;11.18;;;;;;;23.44;63.92;99630.22;5068522;28;20035;-22
2021/07/01 03:58:32;;;;;;;15.02;11.68;;;;;;;23.95;62.39;99627.97;5086937;28;20035;-22
2021/07/01 04:00:58;;;;;;;14.75;11.10;;;;;;;23.77;63.40;99631.78;5086729;28;20032;-22
2021/07/01 04:03:23;;;;;;;15.10;11.68;;;;;;;23.31;64.99;99625.69;5086535;28;20036;-22
2021/07/01 04:05:49;;;;;;;14.63;11.27;;;;;;;23.15;66.28;99632.66;5086367;28;20036;-22
2021/07/01 04:08:14;;;;;;;16.13;10.23;;;;;;;22.88;66.56;99618.09;5086543;28;20040;-22
2021/07/01 04:10:40;;;;;;;19.60;12.20;;;;;;;23.04;66.56;99621.25;5089573;28;20166;-22
2021/07/01 04:13:05;;;;;;;16.85;12.13;;;;;;;23.64;65.26;99638.94;5090065;28;20073;-22
2021/07/01 04:15:31;;;;;;;13.68;11.88;;;;;;;24.04;63.13;99623.31;5090346;28;20024;-22
2021/07/01 04:17:57;;;;;;;14.30;12.38;;;;;;;23.57;65.00;99598.56;5089808;28;20066;-22
2021/07/01 04:20:22;;;;;;;15.80;11.23;;;;;;;23.22;66.59;99631.09;5090064;28;20028;-22
2021/07/01 04:22:48;;;;;;;13.23;11.73;;;;;;;23.09;67.72;99629.31;5090432;28;20028;-22
2021/07/01 04:25:13;;;;;;;21.20;15.52;;;;;;;23.18;66.82;99626.63;5090375;28;20424;-22
2021/07/01 04:27:39;;;;;;;18.83;14.57;;;;;;;23.38;66.23;99641.59;5089695;28;20028;-22
2021/07/01 04:30:05;;;;;;;18.65;12.98;;;;;;;23.63;65.72;99634.59;5089965;28;20035;-22
2021/07/01 04:32:31;;;;;;;17.83;12.13;;;;;;;23.69;65.50;99627.09;5089756;28;20103;-22
2021/07/01 04:34:56;;;;;;;37.05;33.03;;;;;;;23.85;63.59;99650.06;5089871;28;20035;-22
2021/07/01 04:37:21;;;;;;;31.85;27.25;;;;;;;23.65;64.85;99651.41;5089987;28;20024;-22
2021/07/01 04:39:47;;;;;;;27.27;20.23;;;;;;;23.61;64.93;99653.97;5089706;28;20024;-22
2021/07/01 04:42:13;;;;;;;17.27;14.73;;;;;;;23.77;64.14;99648.13;5089501;28;20016;-22
2021/07/01 04:44:38;;;;;;;17.98;11.77;;;;;;;23.83;64.06;99649.56;5089616;28;20067;-22
2021/07/01 04:47:04;;;;;;;13.88;10.60;;;;;;;23.93;64.31;99648.47;5089431;28;20020;-22
2021/07/01 04:49:29;;;;;;;17.25;11.30;;;;;;;23.74;64.58;99654.16;5089396;28;20050;-22
2021/07/01 04:51:55;;;;;;;17.15;11.35;;;;;;;23.96;64.20;99651.34;5071499;28;20067;-22
2021/07/01 04:54:20;;;;;;;16.67;11.35;;;;;;;24.29;62.78;99648.16;5089444;28;20039;-22
2021/07/01 04:56:46;;;;;;;12.70;10.98;;;;;;;24.16;62.79;99639.03;5089458;28;20036;-22
2021/07/01 04:59:18;;;;;;;13.05;10.52;;;;;;;23.98;63.78;99662.72;5089810;28;20036;-22
2021/07/01 05:01:44;;;;;;;12.98;10.77;;;;;;;24.26;62.26;99635.19;5071001;28;20035;-22
2021/07/01 05:04:11;;;;;;;12.85;10.55;;;;;;;24.30;62.09;99644.31;5070992;28;20032;-22
2021/07/01 05:06:37;;;;;;;13.10;11.10;;;;;;;23.97;63.31;99652.97;5089316;28;20031;-22
2021/07/01 05:09:03;;;;;;;14.73;11.65;;;;;;;24.11;63.77;99649.28;5088799;28;20044;-22
2021/07/01 05:11:30;;;;;;;13.95;11.13;;;;;;;24.47;61.17;99638.84;5089039;28;20423;-22
2021/07/01 05:13:56;;;;;;;12.93;11.32;;;;;;;24.43;62.11;99640.63;5088729;28;20031;-22
2021/07/01 05:16:21;;;;;;;16.73;11.73;;;;;;;24.68;61.04;99640.94;5089278;28;20035;-22
2021/07/01 05:18:47;;;;;;;13.85;10.77;;;;;;;24.12;60.91;99631.81;5089043;28;20032;-22
2021/07/01 05:21:12;;;;;;;14.30;10.98;;;;;;;24.34;60.46;99656.19;5088001;28;20032;-22
2021/07/01 05:23:38;;;;;;;13.38;9.77;;;;;;;24.80;58.35;99651.97;5088894;28;20035;-23
2021/07/01 05:26:03;;;;;;;15.63;9.45;;;;;;;24.87;57.40;99640.59;5088655;28;20031;-22
2021/07/01 05:28:28;;;;;;;12.70;9.30;;;;;;;24.39;59.03;99638.88;5088923;28;20036;-22
2021/07/01 05:30:54;;;;;;;13.50;10.27;;;;;;;24.54;59.47;99627.50;5088737;28;20028;-22
2021/07/01 05:33:19;;;;;;;17.80;10.93;;;;;;;24.85;59.05;99638.19;5088557;28;20427;-22
2021/07/01 05:35:45;;;;;;;28.30;20.20;;;;;;;24.83;58.79;99636.91;5088563;28;20039;-23
2021/07/01 05:38:11;;;;;;;55.83;40.47;;;;;;;24.80;59.99;99621.97;5088316;28;20032;-22
2021/07/01 05:40:36;;;;;;;14.85;11.93;;;;;;;24.95;57.56;99628.06;5088846;28;20028;-22
2021/07/01 05:43:02;;;;;;;17.10;12.45;;;;;;;25.24;57.54;99630.84;5088367;28;20527;-22
2021/07/01 05:45:27;;;;;;;12.73;9.63;;;;;;;25.13;56.57;99620.59;5088438;28;20031;-22
2021/07/01 05:47:53;;;;;;;14.18;11.98;;;;;;;25.22;56.42;99627.66;5087923;28;20130;-22
2021/07/01 05:50:19;;;;;;;17.98;11.18;;;;;;;25.36;55.28;99608.34;5088635;28;20051;-22
2021/07/01 05:52:49;;;;;;;13.43;10.25;;;;;;;25.49;55.23;99603.75;5088413;28;20032;-22
2021/07/01 05:55:14;;;;;;;15.23;10.10;;;;;;;25.91;54.42;99628.44;5088187;28;20036;-22
2021/07/01 05:57:40;;;;;;;13.68;10.85;;;;;;;26.06;55.54;99614.16;5088510;28;20454;-23
2021/07/01 06:00:07;;;;;;;16.88;10.95;;;;;;;26.25;55.07;99613.69;5088150;28;20036;-22
2021/07/01 06:02:32;;;;;;;15.57;10.63;;;;;;;26.36;53.79;99627.75;5088525;28;20135;-22
2021/07/01 06:04:58;;;;;;;12.77;10.05;;;;;;;26.47;53.44;99619.94;5088165;28;20054;-22
2021/07/01 06:07:24;;;;;;;15.07;10.68;;;;;;;26.41;54.81;99615.81;5087987;28;20032;-22
2021/07/01 06:09:54;;;;;;;17.08;13.40;;;;;;;26.56;52.87;99614.34;5087402;28;20060;-22
2021/07/01 06:12:21;;;;;;;13.07;9.68;;;;;;;26.68;52.56;99611.69;5088035;28;20124;-22
2021/07/01 06:14:47;;;;;;;13.25;9.30;;;;;;;26.70;54.44;99616.84;5087947;28;20034;-22
2021/07/01 06:17:15;;;;;;;14.75;10.23;;;;;;;27.06;52.41;99618.84;5087824;28;20028;-22
2021/07/01 06:19:40;;;;;;;12.75;10.75;;;;;;;27.37;53.52;99609.31;5070084;28;20032;-22
2021/07/01 06:22:06;;;;;;;12.38;9.98;;;;;;;27.23;51.95;99595.94;5069325;28;20035;-22
2021/07/01 06:24:31;;;;;;;15.18;10.55;;;;;;;26.78;52.79;99613.19;5087722;28;20100;-22
2021/07/01 06:26:56;;;;;;;13.55;11.25;;;;;;;27.39;51.41;99612.50;5069906;28;20495;-22
2021/07/01 06:29:22;;;;;;;12.68;9.75;;;;;;;26.83;53.95;99602.84;5052820;28;20125;-23
2021/07/01 06:31:47;;;;;;;11.93;9.93;;;;;;;26.68;53.27;99589.81;5069016;28;20035;-22
2021/07/01 06:34:16;;;;;;;12.38;10.48;;;;;;;27.00;54.46;99595.56;5087345;28;20031;-22
2021/07/01 06:36:42;;;;;;;11.65;9.85;;;;;;;26.92;52.85;99577.31;5087394;28;20050;-22
2021/07/01 06:39:07;;;;;;;17.13;11.43;;;;;;;27.18;52.94;99590.69;5087503;28;20437;-22
2021/07/01 06:41:33;;;;;;;15.40;9.95;;;;;;;27.41;52.70;99588.31;5087490;28;20031;-22
2021/07/01 06:43:59;;;;;;;14.60;10.25;;;;;;;27.75;51.61;99597.19;5087314;28;20502;-22
2021/07/01 06:46:29;;;;;;;13.68;9.50;;;;;;;27.90;50.94;99599.22;5052695;28;20118;-22
2021/07/01 06:48:55;;;;;;;12.75;10.38;;;;;;;27.76;51.63;99577.63;5054265;28;20036;-22
2021/07/01 06:51:21;;;;;;;12.45;10.27;;;;;;;27.98;52.24;99601.00;5068235;28;20032;-22
2021/07/01 06:53:46;;;;;;;15.13;9.55;;;;;;;27.76;51.89;99605.03;5068756;28;20020;-22
2021/07/01 06:56:12;;;;;;;13.80;9.35;;;;;;;27.78;52.47;99602.75;5052708;28;20032;-22
2021/07/01 06:58:42;;;;;;;11.32;9.38;;;;;;;27.93;51.45;99597.72;5087048;28;20044;-22
2021/07/01 07:01:07;;;;;;;16.08;9.85;;;;;;;28.17;51.24;99588.59;5087273;28;20129;-22
2021/07/01 07:03:33;;;;;;;12.27;9.52;;;;;;;28.21;50.41;99593.03;5087311;28;20062;-22
2021/07/01 07:06:02;;;;;;;12.85;9.90;;;;;;;28.10;50.67;99577.47;5086818;28;20039;-22
2021/07/01 07:08:28;;;;;;;15.18;9.88;;;;;;;28.34;48.92;99590.25;5087053;28;20803;-22
2021/07/01 07:10:54;;;;;;;13.23;9.55;;;;;;;28.43;49.18;99597.19;5086759;28;20507;-22
2021/07/01 07:13:24;;;;;;;11.77;9.85;;;;;;;28.59;50.71;99593.72;5087000;28;20032;-22
2021/07/01 07:15:49;;;;;;;11.85;9.50;;;;;;;28.10;51.10;99586.47;5068364;28;20079;-22
2021/07/01 07:18:18;;;;;;;11.05;9.15;;;;;;;28.62;49.97;99584.75;5068968;28;20032;-22
2021/07/01 07:20:44;;;;;;;12.77;9.85;;;;;;;28.81;50.67;99582.13;5052726;28;20054;-22
2021/07/01 07:23:10;;;;;;;12.85;9.88;;;;;;;28.52;49.90;99596.25;5087141;28;20035;-22
2021/07/01 07:25:38;;;;;;;13.10;10.50;;;;;;;28.62;49.70;99595.72;5086933;28;20039;-22
2021/07/01 07:28:05;;;;;;;12.68;9.88;;;;;;;28.44;49.23;99585.06;5086383;28;20395;-22
2021/07/01 07:30:30;;;;;;;13.10;10.00;;;;;;;28.93;50.14;99591.41;5086997;28;20024;-22
2021/07/01 07:32:56;;;;;;;13.23;9.98;;;;;;;28.80;49.30;99577.78;5068751;28;20601;-22
2021/07/01 07:35:22;;;;;;;12.52;9.68;;;;;;;28.73;49.90;99576.78;5068699;28;20035;-22
2021/07/01 07:37:48;;;;;;;12.93;9.25;;;;;;;28.96;48.37;99574.25;5086665;28;20571;-22
2021/07/01 07:40:13;;;;;;;14.57;10.32;;;;;;;29.28;48.22;99560.50;5086923;28;20024;-22
2021/07/01 07:42:42;;;;;;;16.35;10.18;;;;;;;29.50;48.28;99559.06;5086943;28;20089;-22
2021/07/01 07:45:08;;;;;;;12.63;9.73;;;;;;;29.70;48.31;99559.88;5089228;28;20049;-22
2021/07/01 07:47:34;;;;;;;25.65;9.75;;;;;;;29.53;48.58;99567.38;5090825;28;20046;-22
2021/07/01 07:50:00;;;;;;;15.85;10.95;;;;;;;29.59;48.18;99560.44;5090727;28;20812;-22
2021/07/01 07:52:26;;;;;;;13.38;10.23;;;;;;;29.75;48.03;99545.88;5090745;28;20046;-22
2021/07/01 07:54:54;;;;;;;14.18;10.10;;;;;;;30.20;47.43;99566.44;5072071;28;20065;-22
2021/07/01 07:57:22;;;;;;;14.88;10.18;;;;;;;30.31;47.01;99570.19;5090783;28;20035;-22
2021/07/01 07:59:49;;;;;;;12.63;9.63;;;;;;;30.28;46.64;99562.66;5090485;28;20032;-22
2021/07/01 08:02:28;;;;;;;;;;;;;;;30.39;46.88;99566.41;5091026;28;20400;-22
2021/07/01 08:04:55;;;;;;;15.20;10.32;;;;;;;30.62;46.87;99560.94;5090519;28;19912;-22
2021/07/01 08:07:21;;;;;;;14.65;10.32;;;;;;;30.35;45.59;99562.81;5055609;28;20036;-22
2021/07/01 08:09:46;;;;;;;11.52;9.68;;;;;;;30.37;45.87;99571.50;5068320;28;20078;-22
2021/07/01 08:12:15;;;;;;;14.02;9.90;;;;;;;30.35;46.27;99567.53;5068746;28;20029;-22
2021/07/01 08:14:42;;;;;;;12.45;10.02;;;;;;;30.81;46.66;99568.34;5052073;28;20036;-22
2021/07/01 08:17:07;;;;;;;12.55;9.25;;;;;;;30.77;44.68;99559.25;5068912;28;20108;-22
2021/07/01 08:19:34;;;;;;;12.93;10.20;;;;;;;30.82;46.20;99569.94;5069940;28;20028;-23
2021/07/01 08:22:00;;;;;;;13.50;9.57;;;;;;;31.23;44.88;99567.44;5068476;28;20038;-22
2021/07/01 08:24:25;;;;;;;12.35;10.23;;;;;;;31.32;43.98;99569.16;5068919;28;20032;-22
2021/07/01 08:26:51;;;;;;;13.63;9.98;;;;;;;30.95;44.83;99567.00;5068645;28;20029;-22
2021/07/01 08:29:17;;;;;;;10.65;9.55;;;;;;;31.05;45.34;99566.38;5069621;28;20040;-22
2021/07/01 08:31:47;;;;;;;14.52;10.00;;;;;;;31.18;43.88;99565.03;5051751;28;20508;-22
2021/07/01 08:34:12;;;;;;;13.13;9.63;;;;;;;31.22;44.44;99556.81;5068311;28;20029;-22
2021/07/01 08:36:38;;;;;;;12.32;9.93;;;;;;;30.94;43.54;99538.69;5068290;28;20043;-22
2021/07/01 08:39:03;;;;;;;12.05;9.38;;;;;;;31.11;44.48;99564.91;5068423;28;20025;-22
2021/07/01 08:41:29;;;;;;;12.10;9.57;;;;;;;31.12;44.92;99560.19;5069783;28;20451;-22
2021/07/01 08:44:08;;;;;;;11.32;9.45;;;;;;;31.09;43.97;99558.97;5069353;28;20039;-22
2021/07/01 08:46:47;;;;;;;12.15;9.73;;;;;;;31.38;43.06;99562.94;5069555;28;20063;-22
2021/07/01 08:49:13;;;;;;;12.35;9.88;;;;;;;31.43;44.03;99559.09;5069411;28;20036;-22
2021/07/01 08:51:44;;;;;;;12.20;9.80;;;;;;;31.73;42.37;99544.53;5051524;28;20020;-22
2021/07/01 08:54:35;;;;;;;12.52;10.25;;;;;;;31.91;43.37;99551.06;5069312;28;20036;-22
2021/07/01 08:57:02;;;;;;;16.40;9.70;;;;;;;32.21;42.64;99548.28;5069213;28;20024;-22
2021/07/01 08:59:37;;;;;;;14.57;11.15;;;;;;;32.83;40.31;99561.53;5069226;28;20118;-22
2021/07/01 09:02:04;;;;;;;12.90;10.20;;;;;;;32.26;41.90;99555.41;5067922;28;20033;-22
2021/07/01 09:04:30;;;;;;;19.48;12.65;;;;;;;32.36;41.91;99551.19;5069330;28;20028;-22
2021/07/01 09:07:03;;;;;;;12.90;10.20;;;;;;;32.07;41.41;99537.09;5069162;28;20048;-22
2021/07/01 09:09:32;;;;;;;12.95;9.48;;;;;;;32.12;42.86;99538.72;5067472;28;20083;-22
2021/07/01 09:11:59;;;;;;;12.45;9.75;;;;;;;31.94;43.23;99533.00;5068599;28;20112;-22
2021/07/01 09:14:25;;;;;;;11.05;9.68;;;;;;;32.40;43.35;99505.13;5068934;28;20025;-22
2021/07/01 09:16:50;;;;;;;14.93;10.07;;;;;;;32.85;42.00;99513.41;5067586;28;20028;-22
2021/07/01 09:19:16;;;;;;;15.55;10.35;;;;;;;32.69;40.89;99506.16;5067831;28;20419;-22
2021/07/01 09:21:41;;;;;;;13.52;9.98;;;;;;;33.17;41.72;99519.97;5067724;28;20194;-21
2021/07/01 09:24:07;;;;;;;12.70;9.73;;;;;;;33.18;41.50;99516.03;5050815;28;20037;-22
2021/07/01 09:26:32;;;;;;;13.43;10.10;;;;;;;32.85;41.71;99513.41;5050702;28;20396;-22
2021/07/01 09:28:58;;;;;;;14.50;11.05;;;;;;;33.16;40.80;99504.59;5067487;28;20036;-22
2021/07/01 09:31:24;;;;;;;14.18;9.98;;;;;;;33.03;40.18;99492.22;5068619;28;20029;-22
2021/07/01 09:33:50;;;;;;;11.70;9.82;;;;;;;33.22;41.97;99511.31;5068339;28;20035;-22
2021/07/01 09:36:18;;;;;;;12.80;10.27;;;;;;;33.31;40.74;99496.38;5068553;28;20040;-22
2021/07/01 09:38:44;;;;;;;14.70;10.52;;;;;;;33.64;40.60;99498.13;5068655;28;20461;-22
2021/07/01 09:41:11;;;;;;;17.35;11.90;;;;;;;33.55;38.65;99500.41;5068095;28;20111;-22
2021/07/01 09:43:38;;;;;;;14.82;10.20;;;;;;;33.42;39.25;99502.72;5068255;28;20086;-22
2021/07/01 09:46:04;;;;;;;26.50;11.55;;;;;;;33.81;39.40;99497.38;5066850;28;20040;-22
2021/07/01 09:48:33;;;;;;;12.10;10.73;;;;;;;33.99;40.44;99493.88;5050332;28;20041;-22
2021/07/01 09:51:02;;;;;;;13.23;10.40;;;;;;;34.01;39.68;99494.28;5068207;28;20111;-22
2021/07/01 09:53:33;;;;;;;13.40;9.75;;;;;;;33.81;41.22;99485.53;5068020;28;20068;-22
2021/07/01 09:56:08;;;;;;;13.70;10.52;;;;;;;33.52;40.65;99463.28;5067999;28;20033;-22
2021/07/01 09:58:39;;;;;;;13.27;10.57;;;;;;;33.45;40.80;99474.34;5066929;28;20032;-21
2021/07/01 10:01:05;;;;;;;13.52;9.98;;;;;;;33.82;42.21;99482.38;5066498;28;20105;-21
2021/07/01 10:03:30;;;;;;;15.45;10.40;;;;;;;33.80;40.97;99472.91;5066605;28;20476;-22
2021/07/01 10:05:56;;;;;;;11.38;10.20;;;;;;;33.36;40.27;99476.66;5066359;28;20412;-21
2021/07/01 10:08:37;;;;;;;13.15;10.40;;;;;;;33.86;40.99;99470.53;5065871;28;20086;-22
2021/07/01 10:11:02;;;;;;;14.02;10.70;;;;;;;34.17;39.34;99463.53;5067975;28;20103;-21
2021/07/01 10:13:28;;;;;;;12.35;10.27;;;;;;;34.21;40.40;99475.38;5049828;28;20482;-22
2021/07/01 10:15:53;;;;;;;15.57;10.40;;;;;;;34.17;38.85;99452.44;5067570;28;20032;-22
2021/07/01 10:18:20;;;;;;;11.55;10.35;;;;;;;34.23;38.44;99450.88;5066692;28;20476;-22
2021/07/01 10:20:51;;;;;;;13.57;10.00;;;;;;;34.20;38.36;99457.19;5067820;28;20029;-22
2021/07/01 10:23:26;;;;;;;12.65;9.57;;;;;;;34.13;38.55;99448.84;5067813;28;20115;-22
2021/07/01 10:25:56;;;;;;;12.45;10.13;;;;;;;34.37;38.10;99434.28;5067329;28;20467;-22
2021/07/01 10:28:23;;;;;;;16.13;9.80;;;;;;;34.76;38.50;99450.09;5067400;28;20094;-22
2021/07/01 10:31:12;;;;;;;13.23;9.80;;;;;;;34.99;37.31;99435.00;5067666;28;20523;-21
2021/07/01 10:33:39;;;;;;;15.90;10.02;;;;;;;34.37;37.16;99412.13;5067470;28;20476;-21
2021/07/01 10:36:06;;;;;;;13.40;9.48;;;;;;;34.61;36.94;99410.53;5067066;28;20483;-22
2021/07/01 10:38:41;;;;;;;15.57;9.68;;;;;;;34.99;36.27;99423.91;5067419;28;20063;-22
2021/07/01 10:41:07;;;;;;;16.10;9.30;;;;;;;34.75;37.08;99414.47;5066145;28;20055;-22
2021/07/01 10:43:43;;;;;;;15.07;9.32;;;;;;;35.12;36.37;99413.97;5066085;28;20484;-22
2021/07/01 10:46:09;;;;;;;12.55;9.20;;;;;;;35.24;35.79;99393.38;5067296;28;20028;-22
2021/07/01 10:48:34;;;;;;;15.85;8.77;;;;;;;35.51;36.93;99401.97;5067074;28;20066;-22
2021/07/01 10:51:07;;;;;;;14.70;9.18;;;;;;;35.79;34.44;99405.78;5067082;28;20060;-22
2021/07/01 10:53:50;;;;;;;13.43;9.27;;;;;;;35.49;35.81;99396.03;5066950;28;20040;-22
2021/07/01 10:56:16;;;;;;;12.25;9.02;;;;;;;35.51;36.00;99390.88;5065986;28;20031;-22
2021/07/01 10:58:42;;;;;;;19.42;8.88;;;;;;;35.77;33.89;99386.75;5067032;28;20119;-22
2021/07/01 11:01:07;;;;;;;20.15;11.32;;;;;;;35.58;35.62;99393.59;5067423;28;20060;-21
2021/07/01 11:03:33;;;;;;;15.23;8.50;;;;;;;35.99;33.53;99390.16;5067339;28;20365;-21
2021/07/01 11:06:01;;;;;;;12.60;8.90;;;;;;;35.76;34.00;99398.28;5067225;28;20503;-21
2021/07/01 11:08:35;;;;;;;14.68;8.73;;;;;;;35.79;33.97;99397.44;5067078;28;20028;-22
2021/07/01 11:11:03;;;;;;;17.25;8.07;;;;;;;35.60;31.95;99382.88;5066964;28;20078;-22
2021/07/01 11:13:29;;;;;;;13.35;7.50;;;;;;;35.38;33.35;99387.75;5067103;28;20031;-22
2021/07/01 11:16:14;;;;;;;16.38;8.52;;;;;;;35.15;33.87;99371.63;5066769;28;20039;-22
2021/07/01 11:18:44;;;;;;;14.70;7.70;;;;;;;35.90;30.25;99380.72;5067197;28;20484;-22